Time;durP1;ratioP1;P1;durP2;ratioP2;P2;SDS_P1;SDS_P2;PMS_P1;PMS_P2;Temp;Humidity;BMP_temperature;BMP_pressure;BME280_temperature;BME280_humidity;BME280_pressure;Samples;Min_cycle;Max_cycle;Signal;HPM_P1;HPM_P2
2022/08/06 00:02:26;;;;;;;2.05;1.50;;;;;;;20.03;74.33;98627.00;4983523;28;20048;-85
2022/08/06 00:05:00;;;;;;;2.25;1.98;;;;;;;20.24;73.74;98635.22;5001930;28;20493;-85
2022/08/06 00:07:27;;;;;;;1.80;1.67;;;;;;;20.23;73.65;98636.28;5005261;28;20096;-84
2022/08/06 00:10:12;;;;;;;1.80;1.70;;;;;;;20.25;73.66;98634.16;4976091;28;20063;-85
2022/08/06 00:12:40;;;;;;;1.77;1.67;;;;;;;20.13;75.11;98636.94;5013069;28;20084;-85
2022/08/06 00:15:08;;;;;;;2.17;1.58;;;;;;;19.97;75.17;98651.94;4977063;28;20046;-84
2022/08/06 00:17:41;;;;;;;1.85;1.67;;;;;;;19.93;75.29;98653.47;4975428;28;20445;-84
2022/08/06 00:20:11;;;;;;;1.70;1.48;;;;;;;19.95;76.12;98658.56;4989542;28;20049;-85
2022/08/06 00:23:00;;;;;;;2.22;1.70;;;;;;;20.07;75.80;98666.41;4975044;28;20053;-84
2022/08/06 00:25:29;;;;;;;2.10;1.55;;;;;;;20.19;75.49;98672.44;4975892;28;20039;-87
2022/08/06 00:28:10;;;;;;;2.30;1.63;;;;;;;20.13;75.80;98652.91;4997347;28;20097;-88
2022/08/06 00:30:37;;;;;;;1.85;1.63;;;;;;;20.09;75.80;98661.66;5010362;28;20092;-88
2022/08/06 00:33:04;;;;;;;4.40;1.60;;;;;;;20.16;74.25;98667.63;5002926;28;20049;-88
2022/08/06 00:35:31;;;;;;;8.77;1.98;;;;;;;20.25;74.34;98676.78;5009486;28;20494;-88
2022/08/06 00:38:01;;;;;;;1.95;1.40;;;;;;;20.22;73.64;98667.44;4994524;28;20492;-87
2022/08/06 00:40:31;;;;;;;2.15;1.88;;;;;;;20.12;70.95;98675.28;4987921;28;20055;-87
2022/08/06 00:43:05;;;;;;;2.33;1.65;;;;;;;20.17;71.80;98670.03;5005238;28;20112;-86
2022/08/06 00:45:35;;;;;;;3.83;1.88;;;;;;;19.98;71.27;98660.72;4994562;28;20069;-87
2022/08/06 00:48:08;;;;;;;1.58;1.48;;;;;;;20.11;72.40;98664.88;5013888;28;20069;-88
2022/08/06 00:50:54;;;;;;;2.15;1.50;;;;;;;20.08;73.24;98660.03;4987447;28;20042;-86
2022/08/06 00:53:21;;;;;;;1.35;1.25;;;;;;;20.00;72.85;98666.59;5012917;28;20054;-86
2022/08/06 00:55:48;;;;;;;1.60;1.50;;;;;;;19.94;72.39;98673.72;5013831;28;20092;-86
2022/08/06 00:58:27;;;;;;;1.50;1.40;;;;;;;19.90;72.25;98679.78;4985870;28;20072;-86
2022/08/06 01:01:05;;;;;;;1.48;1.38;;;;;;;19.73;71.68;98677.13;4969676;28;20061;-86
2022/08/06 01:03:46;;;;;;;1.60;1.50;;;;;;;19.68;72.16;98690.41;5007607;28;20058;-87
2022/08/06 01:06:19;;;;;;;1.50;1.27;;;;;;;19.69;72.03;98673.38;4976082;28;20482;-86
2022/08/06 01:09:07;;;;;;;1.55;1.45;;;;;;;19.61;72.45;98663.97;4975879;28;20038;-86
2022/08/06 01:11:37;;;;;;;1.40;1.30;;;;;;;19.56;73.30;98673.69;4997650;28;20516;-86
2022/08/06 01:14:07;;;;;;;1.88;1.30;;;;;;;19.35;73.45;98661.91;4969608;28;20050;-86
2022/08/06 01:16:57;;;;;;;1.98;1.30;;;;;;;19.36;73.64;98674.97;4976617;28;20097;-86
2022/08/06 01:19:51;;;;;;;1.27;1.17;;;;;;;19.37;71.93;98665.97;4977325;28;20125;-86
2022/08/06 01:23:09;;;;;;;2.17;1.45;;;;;;;19.19;70.48;98675.00;4975531;28;20061;-86
2022/08/06 01:26:15;;;;;;;1.42;1.33;;;;;;;19.06;70.25;98680.59;4967166;28;20061;-87
2022/08/06 01:28:53;;;;;;;1.40;1.30;;;;;;;19.08;72.45;98683.84;4997059;28;20042;-87
2022/08/06 01:31:34;;;;;;;1.58;1.48;;;;;;;19.12;71.05;98687.59;4993255;28;20041;-84
2022/08/06 01:34:12;;;;;;;1.55;1.30;;;;;;;19.05;72.02;98688.81;5012560;28;20084;-84
2022/08/06 01:36:47;;;;;;;1.40;1.30;;;;;;;19.10;71.39;98692.38;4972921;28;20093;-84
2022/08/06 01:39:20;;;;;;;1.40;1.30;;;;;;;19.07;70.93;98700.84;4982471;28;20041;-84
2022/08/06 01:42:10;;;;;;;2.10;1.50;;;;;;;19.01;71.25;98693.00;5012275;28;20049;-84
2022/08/06 01:44:43;;;;;;;1.30;1.20;;;;;;;19.03;71.15;98680.28;4993046;28;20482;-85
2022/08/06 01:47:20;;;;;;;1.00;1.00;;;;;;;19.10;70.82;98702.19;4996662;28;20069;-84
2022/08/06 01:49:58;;;;;;;1.50;1.40;;;;;;;19.03;70.53;98694.38;4995332;28;20038;-84
2022/08/06 01:52:36;;;;;;;1.55;1.45;;;;;;;18.89;69.53;98690.38;5013055;28;20060;-84
2022/08/06 01:55:13;;;;;;;1.27;1.17;;;;;;;18.68;69.98;98695.34;5006727;28;20062;-84
2022/08/06 01:57:50;;;;;;;3.33;1.45;;;;;;;18.61;70.51;98699.97;4994759;28;20074;-85
2022/08/06 02:00:42;;;;;;;1.30;1.20;;;;;;;18.77;71.23;98701.06;4972170;28;20043;-85
2022/08/06 02:03:30;;;;;;;1.27;1.17;;;;;;;18.63;71.27;98702.38;4973035;28;20053;-85
2022/08/06 02:06:30;;;;;;;1.30;1.20;;;;;;;18.58;70.79;98707.59;4982387;28;20047;-85
2022/08/06 02:09:05;;;;;;;2.13;1.50;;;;;;;18.54;70.69;98711.78;5004365;28;20038;-85
2022/08/06 02:12:06;;;;;;;1.50;1.40;;;;;;;18.45;71.18;98706.81;5012753;28;20085;-85
2022/08/06 02:14:42;;;;;;;1.65;1.10;;;;;;;18.22;70.44;98712.19;4992613;28;20129;-86
2022/08/06 02:17:13;;;;;;;1.33;1.20;;;;;;;18.22;71.00;98701.56;5007571;28;20041;-88
2022/08/06 02:19:49;;;;;;;1.50;1.40;;;;;;;18.23;71.89;98711.13;5010374;28;20429;-88
2022/08/06 02:22:39;;;;;;;1.20;1.10;;;;;;;18.41;72.71;98710.16;4991761;28;20117;-88
2022/08/06 02:25:13;;;;;;;1.42;1.33;;;;;;;18.48;72.37;98712.72;5002937;28;20072;-89
2022/08/06 02:28:00;;;;;;;1.50;1.40;;;;;;;18.38;70.84;98718.63;5006169;28;20034;-89
2022/08/06 02:30:36;;;;;;;1.77;1.45;;;;;;;18.37;71.24;98707.19;5003570;28;20473;-89
2022/08/06 02:33:10;;;;;;;1.50;1.40;;;;;;;18.13;72.28;98718.91;5000912;28;20096;-87
2022/08/06 02:36:16;;;;;;;1.92;1.60;;;;;;;17.96;72.57;98710.03;5010136;28;20049;-88
2022/08/06 02:39:02;;;;;;;1.52;1.42;;;;;;;18.15;72.25;98732.75;4990009;28;20405;-89
2022/08/06 02:42:07;;;;;;;1.55;1.45;;;;;;;18.15;71.95;98727.44;5008739;28;20057;-89
2022/08/06 02:45:03;;;;;;;1.50;1.40;;;;;;;18.30;72.07;98746.34;5010490;28;20054;-89
2022/08/06 02:47:59;;;;;;;1.75;1.65;;;;;;;18.22;72.44;98733.41;5010853;28;20041;-89
2022/08/06 02:50:39;;;;;;;1.65;1.42;;;;;;;18.11;72.69;98731.59;4955828;28;20047;-88
2022/08/06 02:53:10;;;;;;;1.77;1.50;;;;;;;18.21;72.97;98741.63;4991437;28;20084;-89
2022/08/06 02:56:05;;;;;;;1.55;1.45;;;;;;;18.18;73.00;98734.94;5010353;28;20050;-89
2022/08/06 02:58:45;;;;;;;1.65;1.23;;;;;;;18.28;72.94;98743.09;5007624;28;20042;-88
2022/08/06 03:01:41;;;;;;;1.52;1.40;;;;;;;18.10;72.63;98729.97;4998062;28;20157;-88
2022/08/06 03:04:12;;;;;;;1.67;1.42;;;;;;;18.13;73.37;98732.97;4999857;28;20054;-89
2022/08/06 03:06:46;;;;;;;1.52;1.42;;;;;;;18.16;72.33;98740.47;5013481;28;20062;-90
2022/08/06 03:09:18;;;;;;;1.48;1.38;;;;;;;18.19;72.18;98744.53;4997423;28;20046;-88
2022/08/06 03:11:48;;;;;;;1.40;1.30;;;;;;;18.19;71.93;98749.81;5005767;28;20057;-88
2022/08/06 03:14:18;;;;;;;1.33;1.23;;;;;;;18.17;71.92;98746.56;4989838;28;20046;-88
2022/08/06 03:17:07;;;;;;;1.38;1.30;;;;;;;18.11;71.90;98744.84;4982365;28;20391;-90
2022/08/06 03:19:37;;;;;;;1.40;1.30;;;;;;;18.11;71.86;98744.84;5011515;28;20069;-89
2022/08/06 03:22:27;;;;;;;1.55;1.45;;;;;;;18.04;71.32;98741.53;4976824;28;20049;-88
2022/08/06 03:25:12;;;;;;;1.45;1.35;;;;;;;18.10;72.18;98748.56;5015214;28;20139;-89
2022/08/06 03:27:43;;;;;;;1.55;1.45;;;;;;;18.09;71.90;98749.59;5002521;28;20054;-89
2022/08/06 03:30:12;;;;;;;1.50;1.40;;;;;;;18.05;72.29;98748.44;5007541;28;20183;-88
2022/08/06 03:33:14;;;;;;;1.40;1.30;;;;;;;18.02;72.09;98756.88;5009909;28;20050;-88
2022/08/06 03:36:03;;;;;;;2.05;1.50;;;;;;;17.98;71.86;98743.25;4987515;28;20054;-88
2022/08/06 03:38:42;;;;;;;1.45;1.35;;;;;;;18.06;72.36;98760.69;4996358;28;20043;-88
2022/08/06 03:41:13;;;;;;;2.30;1.40;;;;;;;18.03;71.34;98767.25;4996554;28;20046;-89
2022/08/06 03:43:44;;;;;;;1.85;1.40;;;;;;;17.98;72.08;98761.03;4992999;28;20092;-88
2022/08/06 03:47:03;;;;;;;1.50;1.40;;;;;;;17.86;72.07;98772.44;4999817;28;20046;-89
2022/08/06 03:49:42;;;;;;;1.50;1.40;;;;;;;17.71;72.81;98766.75;4989530;28;20500;-88
2022/08/06 03:52:20;;;;;;;1.67;1.58;;;;;;;17.73;73.18;98772.66;4973570;28;20058;-88
2022/08/06 03:55:01;;;;;;;1.52;1.42;;;;;;;17.79;73.51;98782.34;4983092;28;20076;-88
2022/08/06 03:57:45;;;;;;;1.73;1.60;;;;;;;17.82;72.87;98792.53;4970461;28;20644;-89
2022/08/06 04:00:19;;;;;;;1.65;1.55;;;;;;;17.64;73.23;98790.75;4996271;28;20050;-89
2022/08/06 04:02:58;;;;;;;1.92;1.60;;;;;;;17.56;72.99;98784.94;5008147;28;20050;-89
2022/08/06 04:05:32;;;;;;;1.42;1.33;;;;;;;17.53;73.55;98778.25;5003890;28;20069;-88
2022/08/06 04:08:07;;;;;;;1.67;1.58;;;;;;;17.62;73.28;98792.00;5008991;28;20406;-88
2022/08/06 04:10:41;;;;;;;1.60;1.50;;;;;;;17.66;73.63;98796.63;5008240;28;20125;-89
2022/08/06 04:13:23;;;;;;;1.70;1.60;;;;;;;17.66;73.44;98798.47;5012524;28;20046;-89
2022/08/06 04:16:13;;;;;;;1.58;1.48;;;;;;;17.66;74.11;98803.78;4994040;28;20048;-89
2022/08/06 04:18:43;;;;;;;1.83;1.48;;;;;;;17.58;74.37;98794.31;4990358;28;20133;-89
2022/08/06 04:21:20;;;;;;;1.88;1.38;;;;;;;17.64;73.79;98800.53;5009438;28;20489;-89
2022/08/06 04:24:07;;;;;;;1.70;1.60;;;;;;;17.61;73.43;98800.97;4984253;28;20046;-89
2022/08/06 04:26:39;;;;;;;1.45;1.35;;;;;;;17.67;73.69;98816.00;4997030;28;20128;-88
2022/08/06 04:29:12;;;;;;;1.73;1.63;;;;;;;17.64;73.52;98821.78;4995529;28;20139;-89
2022/08/06 04:31:46;;;;;;;1.50;1.40;;;;;;;17.72;73.00;98821.47;5008869;28;20038;-89
2022/08/06 04:34:38;;;;;;;1.60;1.50;;;;;;;17.63;73.33;98820.13;4987369;28;20046;-90
2022/08/06 04:37:25;;;;;;;1.70;1.60;;;;;;;17.59;73.05;98834.91;5005260;28;20050;-89
2022/08/06 04:39:57;;;;;;;1.98;1.60;;;;;;;17.66;72.51;98838.25;4992631;28;20073;-90
2022/08/06 04:42:25;;;;;;;1.80;1.50;;;;;;;17.55;73.15;98828.41;4985321;28;20138;-89
2022/08/06 04:44:54;;;;;;;1.73;1.63;;;;;;;17.63;72.82;98849.31;5012914;28;20056;-90
2022/08/06 04:47:31;;;;;;;1.58;1.48;;;;;;;17.53;73.18;98846.41;4975696;28;20053;-89
2022/08/06 04:50:10;;;;;;;1.70;1.60;;;;;;;17.61;72.70;98849.53;4991912;28;20042;-89
2022/08/06 04:52:38;;;;;;;1.60;1.50;;;;;;;17.52;72.44;98850.09;5013226;28;20054;-89
2022/08/06 04:55:17;;;;;;;1.70;1.60;;;;;;;17.57;72.27;98856.34;4998508;28;20041;-90
2022/08/06 04:57:52;;;;;;;1.50;1.40;;;;;;;17.61;73.06;98864.66;5013963;28;20052;-89
2022/08/06 05:00:36;;;;;;;1.40;1.30;;;;;;;17.47;72.90;98861.38;4974049;28;20070;-91
2022/08/06 05:03:23;;;;;;;1.70;1.60;;;;;;;17.41;72.99;98864.13;4960531;28;20600;-86
2022/08/06 05:06:22;;;;;;;1.50;1.40;;;;;;;17.44;72.64;98866.31;4987220;28;20053;-86
2022/08/06 05:09:01;;;;;;;1.92;1.33;;;;;;;17.47;73.85;98868.53;5014074;28;20053;-86
2022/08/06 05:11:48;;;;;;;1.63;1.53;;;;;;;17.35;74.81;98860.53;5006955;28;20122;-86
2022/08/06 05:14:38;;;;;;;1.90;1.40;;;;;;;17.53;74.39;98864.97;5005500;28;20130;-85
2022/08/06 05:17:10;;;;;;;2.10;1.58;;;;;;;17.44;74.42;98876.91;4991103;28;20533;-85
2022/08/06 05:19:59;;;;;;;1.35;1.25;;;;;;;17.65;75.10;98876.44;4998758;28;20081;-85
2022/08/06 05:22:28;;;;;;;1.40;1.30;;;;;;;17.70;73.58;98889.03;4995481;28;20057;-84
2022/08/06 05:25:16;;;;;;;1.55;1.45;;;;;;;17.70;73.27;98895.13;4998907;28;20653;-84
2022/08/06 05:27:54;;;;;;;1.40;1.30;;;;;;;17.65;72.46;98884.38;5010320;28;20050;-84
2022/08/06 05:30:47;;;;;;;1.45;1.35;;;;;;;17.74;72.66;98891.00;4973237;28;20047;-84
2022/08/06 05:33:33;;;;;;;1.00;0.93;;;;;;;17.94;71.33;98898.69;4972909;28;20047;-85
2022/08/06 05:36:09;;;;;;;1.58;1.30;;;;;;;17.74;70.63;98896.31;4973296;28;20050;-85
2022/08/06 05:38:46;;;;;;;1.45;1.20;;;;;;;17.49;69.00;98890.31;4966061;28;20104;-88
2022/08/06 05:41:28;;;;;;;1.48;1.25;;;;;;;17.56;71.44;98897.16;4972872;28;20039;-85
2022/08/06 05:43:59;;;;;;;1.17;1.00;;;;;;;17.66;71.68;98899.25;4996210;28;20464;-85
2022/08/06 05:47:11;;;;;;;1.15;1.08;;;;;;;17.62;65.55;98896.25;5012593;28;20045;-86
2022/08/06 05:49:58;;;;;;;1.50;1.13;;;;;;;17.58;69.70;98897.75;4992070;28;20085;-84
2022/08/06 05:52:37;;;;;;;1.00;1.00;;;;;;;17.70;68.79;98897.78;5000755;28;20168;-88
2022/08/06 05:55:14;;;;;;;1.10;1.00;;;;;;;17.91;70.24;98917.72;5004606;28;20080;-88
2022/08/06 05:57:51;;;;;;;0.90;0.90;;;;;;;17.82;68.66;98909.28;4986742;28;20128;-88
2022/08/06 06:00:26;;;;;;;1.25;1.15;;;;;;;17.69;68.27;98919.22;4992265;28;20047;-86
2022/08/06 06:03:15;;;;;;;1.52;1.25;;;;;;;17.16;69.73;98915.41;5001482;28;20050;-88
2022/08/06 06:05:53;;;;;;;0.93;0.93;;;;;;;17.16;70.19;98920.72;4998709;28;20454;-90
2022/08/06 06:08:35;;;;;;;1.20;1.10;;;;;;;17.30;68.43;98911.56;5002563;28;20054;-91
2022/08/06 06:11:08;;;;;;;1.25;1.02;;;;;;;17.37;67.84;98922.91;5010235;28;20054;-90
2022/08/06 06:13:39;;;;;;;1.40;1.20;;;;;;;17.11;64.33;98918.72;5008586;28;20397;-83
2022/08/06 06:16:40;;;;;;;1.73;1.20;;;;;;;17.17;61.24;98921.53;5011664;28;20049;-86
2022/08/06 06:19:38;;;;;;;2.38;1.13;;;;;;;17.29;66.98;98931.16;5010091;28;20536;-86
2022/08/06 06:22:16;;;;;;;0.90;0.90;;;;;;;17.41;67.50;98933.06;5003923;28;20042;-83
2022/08/06 06:24:54;;;;;;;1.15;1.05;;;;;;;17.42;63.28;98932.03;5006901;28;20046;-85
2022/08/06 06:27:49;;;;;;;0.90;0.90;;;;;;;17.60;66.99;98935.47;5007692;28;20057;-82
2022/08/06 06:30:33;;;;;;;2.10;1.20;;;;;;;17.68;61.21;98923.72;4992950;28;20486;-83
2022/08/06 06:33:47;;;;;;;0.70;0.70;;;;;;;17.66;59.10;98923.94;5009018;28;20046;-82
2022/08/06 06:36:32;;;;;;;1.20;1.00;;;;;;;17.85;64.07;98930.03;4994724;28;20046;-84
2022/08/06 06:39:13;;;;;;;0.88;0.88;;;;;;;17.89;62.54;98931.22;5006153;28;20069;-83
2022/08/06 06:41:54;;;;;;;1.42;0.90;;;;;;;17.92;65.18;98945.84;4996568;28;20093;-82
2022/08/06 06:44:29;;;;;;;;;;;;;;;17.95;65.15;98944.63;4996194;28;20053;-84
2022/08/06 06:47:31;;;;;;;1.20;0.80;;;;;;;18.27;63.55;98943.28;5011276;28;20870;-83
2022/08/06 06:50:13;;;;;;;0.98;0.90;;;;;;;18.44;61.46;98960.19;5015707;28;20042;-86
2022/08/06 06:52:48;;;;;;;0.90;0.90;;;;;;;18.39;57.32;98949.44;4990129;28;20053;-85
2022/08/06 06:55:33;;;;;;;2.55;0.90;;;;;;;18.44;56.70;98954.88;5000819;28;20039;-86
2022/08/06 06:58:45;;;;;;;1.40;0.85;;;;;;;18.68;58.54;98957.56;4981038;28;20157;-84
2022/08/06 07:01:17;;;;;;;0.63;0.63;;;;;;;18.64;58.67;98953.72;4975929;28;20574;-84
2022/08/06 07:03:56;;;;;;;1.02;0.70;;;;;;;18.82;59.54;98964.25;5012721;28;20050;-89
2022/08/06 07:06:26;;;;;;;0.57;0.57;;;;;;;19.03;59.87;98962.88;5005323;28;20049;-87
2022/08/06 07:09:17;;;;;;;1.00;0.60;;;;;;;19.13;54.14;98968.41;4993838;28;20086;-89
2022/08/06 07:12:08;;;;;;;0.80;0.70;;;;;;;19.09;54.87;98969.09;4996521;28;20062;-87
2022/08/06 07:14:52;;;;;;;1.17;0.70;;;;;;;19.07;56.00;98963.19;4993513;28;20046;-89
2022/08/06 07:17:29;;;;;;;0.77;0.77;;;;;;;19.10;52.98;98962.75;4994745;28;20593;-88
2022/08/06 07:20:19;;;;;;;0.73;0.70;;;;;;;19.37;56.59;98969.19;5005302;28;20045;-89
2022/08/06 07:22:56;;;;;;;0.68;0.60;;;;;;;19.26;53.71;98962.03;5001936;28;20054;-87
2022/08/06 07:25:48;;;;;;;1.25;0.77;;;;;;;19.53;54.12;98972.94;4993049;28;20391;-91
2022/08/06 07:28:25;;;;;;;0.82;0.80;;;;;;;19.63;53.31;98977.69;4994351;28;20081;-88
2022/08/06 07:30:59;;;;;;;0.60;0.60;;;;;;;19.65;53.45;98967.59;4997801;28;20046;-88
2022/08/06 07:33:35;;;;;;;0.95;0.68;;;;;;;19.87;57.11;98968.56;4974287;28;20054;-88
2022/08/06 07:36:26;;;;;;;1.45;0.50;;;;;;;19.97;57.00;98971.44;4993677;28;20105;-87
2022/08/06 07:39:01;;;;;;;1.55;0.80;;;;;;;20.12;54.50;98975.38;4992583;28;20468;-89
2022/08/06 07:41:31;;;;;;;0.60;0.60;;;;;;;20.17;54.27;98973.63;4997733;28;20050;-88
2022/08/06 07:44:22;;;;;;;0.70;0.70;;;;;;;20.15;50.34;98964.25;4965981;28;20073;-88
2022/08/06 07:47:01;;;;;;;1.13;0.65;;;;;;;20.12;46.38;98960.22;4986289;28;20058;-84
2022/08/06 07:49:56;;;;;;;0.60;0.60;;;;;;;20.10;51.00;98966.84;4994566;28;20494;-88
2022/08/06 07:52:28;;;;;;;1.00;0.70;;;;;;;20.00;47.94;98973.59;5006721;28;20054;-85
2022/08/06 07:54:59;;;;;;;1.23;0.70;;;;;;;20.22;53.41;98970.25;5005955;28;20073;-90
2022/08/06 07:57:28;;;;;;;0.60;0.60;;;;;;;20.03;53.63;98958.97;5003034;28;20096;-88
2022/08/06 08:00:15;;;;;;;0.50;0.50;;;;;;;20.15;54.67;98970.41;4998317;28;20053;-88
2022/08/06 08:06:17;;;;;;;1.50;0.70;;;;;;;20.07;49.76;98983.28;4958574;28;20142;-90
2022/08/06 08:08:29;;;;;;;0.63;0.60;;;;;;;20.24;48.12;98960.97;4992636;28;20050;-90
2022/08/06 08:10:57;;;;;;;1.65;0.77;;;;;;;20.46;49.93;98960.28;4977258;28;20072;-88
2022/08/06 08:13:27;;;;;;;0.60;0.60;;;;;;;20.51;48.76;98973.66;4977176;28;20173;-90
2022/08/06 08:16:11;;;;;;;0.43;0.43;;;;;;;20.70;49.57;98972.38;4997694;28;20067;-90
2022/08/06 08:18:46;;;;;;;0.70;0.70;;;;;;;20.78;47.50;98981.81;4988939;28;20047;-89
2022/08/06 08:21:14;;;;;;;0.60;0.60;;;;;;;20.87;53.71;98983.03;4976816;28;20038;-91
2022/08/06 08:23:45;;;;;;;0.40;0.40;;;;;;;20.98;49.37;98978.63;4993309;28;20060;-88
2022/08/06 08:26:12;;;;;;;0.75;0.65;;;;;;;20.99;49.69;98988.22;4998472;28;20086;-92
2022/08/06 08:28:39;;;;;;;1.02;0.60;;;;;;;21.07;46.46;98972.63;4995807;28;20456;-90
2022/08/06 08:31:08;;;;;;;1.02;0.60;;;;;;;21.26;52.52;98977.69;5006289;28;20462;-89
2022/08/06 08:33:52;;;;;;;0.80;0.80;;;;;;;21.01;44.00;98983.47;4980388;28;20096;-88
2022/08/06 08:36:23;;;;;;;1.83;0.60;;;;;;;20.94;44.45;98967.66;5003813;28;20474;-88
2022/08/06 08:38:57;;;;;;;0.70;0.60;;;;;;;21.20;49.79;98978.66;5001347;28;20118;-89
2022/08/06 08:41:35;;;;;;;0.52;0.52;;;;;;;21.13;45.84;98980.72;5001932;28;20038;-86
2022/08/06 08:44:24;;;;;;;0.85;0.50;;;;;;;21.21;47.25;98978.41;4997810;28;20129;-88
2022/08/06 08:46:58;;;;;;;0.60;0.60;;;;;;;21.36;49.63;98980.50;4987440;28;20682;-89
2022/08/06 08:49:47;;;;;;;0.70;0.70;;;;;;;21.47;48.58;98979.59;5005757;28;20049;-89
2022/08/06 08:52:28;;;;;;;1.10;0.80;;;;;;;21.30;45.93;98984.16;4980835;28;20062;-89
2022/08/06 08:55:03;;;;;;;0.57;0.57;;;;;;;21.20;43.08;98970.66;4992433;28;20043;-89
2022/08/06 08:57:52;;;;;;;1.55;0.65;;;;;;;21.36;44.43;98965.31;4970628;28;20125;-90
2022/08/06 09:00:40;;;;;;;0.60;0.60;;;;;;;21.51;44.02;98956.66;4985929;28;20047;-90
2022/08/06 09:03:18;;;;;;;1.60;0.50;;;;;;;21.71;49.09;98974.78;4973035;28;20081;-92
2022/08/06 09:05:46;;;;;;;0.80;0.80;;;;;;;21.62;47.10;98955.72;4957618;28;20051;-91
2022/08/06 09:08:15;;;;;;;1.40;0.70;;;;;;;21.67;44.25;98954.97;4981705;28;20061;-88
2022/08/06 09:11:04;;;;;;;0.85;0.50;;;;;;;21.99;47.11;98975.59;4994407;28;20042;-91
2022/08/06 09:13:37;;;;;;;0.60;0.60;;;;;;;21.85;41.97;98961.84;5004298;28;20050;-87
2022/08/06 09:16:17;;;;;;;0.60;0.60;;;;;;;21.91;42.75;98964.31;4998366;28;20048;-91
2022/08/06 09:18:58;;;;;;;1.43;0.70;;;;;;;22.02;43.36;98969.75;4970653;28;20482;-91
2022/08/06 09:21:26;;;;;;;0.55;0.55;;;;;;;22.06;44.73;98968.97;4988612;28;20046;-92
2022/08/06 09:23:58;;;;;;;0.55;0.55;;;;;;;22.14;45.85;98963.22;4989790;28;20121;-87
2022/08/06 09:26:33;;;;;;;1.23;0.70;;;;;;;22.23;43.67;98968.09;5004339;28;20108;-89
2022/08/06 09:29:21;;;;;;;0.57;0.50;;;;;;;22.49;44.27;98967.25;5000890;28;20081;-90
2022/08/06 09:32:06;;;;;;;0.73;0.73;;;;;;;22.46;41.54;98973.09;4992338;28;20390;-90
2022/08/06 09:34:43;;;;;;;0.70;0.70;;;;;;;22.28;42.23;98957.44;4968242;28;20094;-87
2022/08/06 09:37:27;;;;;;;0.98;0.50;;;;;;;22.19;42.92;98957.13;5001109;28;20450;-88
2022/08/06 09:40:19;;;;;;;0.50;0.50;;;;;;;22.38;41.77;98960.22;5009162;28;20042;-90
2022/08/06 09:42:53;;;;;;;0.60;0.60;;;;;;;22.34;41.69;98964.44;5011706;28;20125;-88
2022/08/06 09:45:22;;;;;;;0.60;0.60;;;;;;;22.12;41.20;98941.28;4982506;28;20050;-90
2022/08/06 09:48:09;;;;;;;1.10;0.77;;;;;;;22.00;39.23;98959.31;4997334;28;20053;-89
2022/08/06 09:50:46;;;;;;;0.65;0.60;;;;;;;22.25;43.32;98956.09;5010428;28;20049;-89
2022/08/06 09:53:17;;;;;;;0.50;0.43;;;;;;;22.38;47.13;98950.34;5008818;28;20057;-88
2022/08/06 09:55:53;;;;;;;0.70;0.65;;;;;;;22.55;39.90;98960.88;5011267;28;20626;-87
2022/08/06 09:58:35;;;;;;;0.60;0.60;;;;;;;22.71;44.69;98964.44;5010870;28;20045;-94
2022/08/06 10:01:18;;;;;;;0.60;0.60;;;;;;;22.66;43.79;98961.75;4994973;28;20157;-87
2022/08/06 10:03:51;;;;;;;0.50;0.50;;;;;;;22.78;43.40;98959.69;4990303;28;20065;-87
2022/08/06 10:06:50;;;;;;;0.63;0.40;;;;;;;22.86;42.53;98961.09;4980622;28;20042;-88
2022/08/06 10:09:21;;;;;;;0.52;0.52;;;;;;;22.78;39.01;98953.53;4992153;28;20504;-88
2022/08/06 10:12:22;;;;;;;0.65;0.50;;;;;;;22.99;42.31;98963.31;5013861;28;20527;-87
2022/08/06 10:14:53;;;;;;;0.60;0.60;;;;;;;22.93;41.50;98957.13;5014043;28;20448;-90
2022/08/06 10:17:24;;;;;;;0.80;0.80;;;;;;;22.71;39.98;98954.56;4994957;28;20729;-87
2022/08/06 10:20:17;;;;;;;0.93;0.60;;;;;;;22.80;39.90;98960.25;4995714;28;20035;-87
2022/08/06 10:22:56;;;;;;;1.48;0.73;;;;;;;22.68;41.69;98959.63;4994509;28;20054;-92
2022/08/06 10:25:25;;;;;;;0.60;0.60;;;;;;;22.99;44.39;98955.31;4984798;28;20042;-87
2022/08/06 10:27:58;;;;;;;0.50;0.50;;;;;;;23.31;39.13;98957.06;5014443;28;20056;-88
2022/08/06 10:30:28;;;;;;;0.55;0.55;;;;;;;23.29;43.36;98953.84;5015781;28;20069;-88
2022/08/06 10:33:09;;;;;;;0.60;0.60;;;;;;;23.31;37.88;98951.69;5015550;28;20050;-91
2022/08/06 10:35:54;;;;;;;0.98;0.60;;;;;;;23.27;37.18;98951.44;5007900;28;20053;-87
2022/08/06 10:38:27;;;;;;;0.73;0.50;;;;;;;23.18;37.30;98947.63;5014426;28;20041;-93
2022/08/06 10:41:07;;;;;;;0.50;0.50;;;;;;;23.39;38.06;98948.50;5004128;28;20049;-88
2022/08/06 10:44:14;;;;;;;0.90;0.57;;;;;;;23.10;36.99;98940.91;5004748;28;20060;-88
2022/08/06 10:46:52;;;;;;;0.65;0.65;;;;;;;23.11;35.52;98947.88;5010226;28;20038;-89
2022/08/06 10:49:23;;;;;;;0.63;0.60;;;;;;;23.22;38.50;98946.06;5003873;28;20142;-87
2022/08/06 10:52:12;;;;;;;0.60;0.60;;;;;;;23.37;37.83;98950.66;4981526;28;20109;-90
2022/08/06 10:54:43;;;;;;;1.05;0.60;;;;;;;23.48;38.35;98946.94;4988706;28;20117;-88
2022/08/06 10:57:18;;;;;;;0.60;0.60;;;;;;;23.42;36.86;98937.28;5011045;28;20046;-85
2022/08/06 11:00:05;;;;;;;1.58;0.60;;;;;;;23.51;36.43;98941.09;5016713;28;20046;-88
2022/08/06 11:03:00;;;;;;;0.50;0.50;;;;;;;23.57;36.34;98940.03;5014101;28;20551;-87
2022/08/06 11:05:38;;;;;;;0.85;0.60;;;;;;;23.66;36.83;98943.81;4963153;28;20522;-87
2022/08/06 11:08:52;;;;;;;0.60;0.60;;;;;;;23.62;38.46;98937.38;5004087;28;20100;-87
2022/08/06 11:12:09;;;;;;;0.80;0.60;;;;;;;23.80;36.93;98924.56;5014972;28;20153;-86
2022/08/06 11:14:43;;;;;;;0.63;0.63;;;;;;;23.68;36.08;98927.47;4995867;28;20062;-88
2022/08/06 11:17:12;;;;;;;0.50;0.50;;;;;;;23.90;36.89;98921.91;4997374;28;20049;-87
2022/08/06 11:19:42;;;;;;;0.88;0.70;;;;;;;24.11;35.89;98928.91;4999590;28;20050;-87
2022/08/06 11:22:37;;;;;;;0.63;0.50;;;;;;;24.27;36.28;98930.47;5016881;28;20046;-89
2022/08/06 11:25:08;;;;;;;1.27;0.55;;;;;;;24.32;33.09;98918.16;5016132;28;20092;-86
2022/08/06 11:28:01;;;;;;;0.60;0.60;;;;;;;24.38;34.02;98917.91;5015646;28;20496;-85
2022/08/06 11:30:38;;;;;;;1.05;0.52;;;;;;;24.48;36.32;98927.84;5017572;28;20401;-88
2022/08/06 11:33:10;;;;;;;0.50;0.50;;;;;;;24.53;36.00;98919.78;4974096;28;20053;-86
2022/08/06 11:35:43;;;;;;;0.38;0.38;;;;;;;24.68;34.75;98911.69;4977053;28;20090;-88
2022/08/06 11:38:42;;;;;;;0.60;0.60;;;;;;;24.43;33.25;98920.59;4990194;28;20042;-86
2022/08/06 11:41:25;;;;;;;0.40;0.40;;;;;;;24.48;33.46;98903.72;4987152;28;20122;-88
2022/08/06 11:44:17;;;;;;;0.45;0.45;;;;;;;24.76;34.10;98921.06;4996748;28;20050;-86
2022/08/06 11:46:49;;;;;;;0.93;0.60;;;;;;;24.85;33.97;98921.31;5013814;28;20049;-84
2022/08/06 11:49:38;;;;;;;0.75;0.75;;;;;;;24.46;30.39;98908.50;5016184;28;20389;-87
2022/08/06 11:52:33;;;;;;;1.15;0.60;;;;;;;24.26;31.39;98914.69;5015406;28;20050;-89
2022/08/06 11:55:13;;;;;;;0.57;0.57;;;;;;;24.18;32.16;98920.59;4971381;28;20065;-87
2022/08/06 11:58:19;;;;;;;0.65;0.50;;;;;;;24.45;30.87;98899.66;4983664;28;20100;-84
2022/08/06 12:01:02;;;;;;;0.50;0.50;;;;;;;24.41;34.83;98895.09;4973151;28;20067;-85
2022/08/06 12:03:49;;;;;;;0.40;0.40;;;;;;;24.81;35.94;98918.38;4989075;28;20482;-90
2022/08/06 12:06:25;;;;;;;0.55;0.50;;;;;;;24.69;31.28;98907.94;4990056;28;20093;-83
2022/08/06 12:09:18;;;;;;;0.63;0.60;;;;;;;24.63;32.63;98894.81;4994756;28;20050;-86
2022/08/06 12:12:28;;;;;;;0.68;0.65;;;;;;;24.63;33.10;98911.72;4996342;28;20038;-86
2022/08/06 12:14:58;;;;;;;1.60;0.40;;;;;;;24.67;36.15;98898.56;4995874;28;20387;-87
2022/08/06 12:17:36;;;;;;;0.63;0.45;;;;;;;24.90;33.27;98902.53;4995740;28;20072;-91
2022/08/06 12:20:40;;;;;;;0.80;0.60;;;;;;;24.90;32.75;98889.13;4987947;28;20108;-87
2022/08/06 12:23:22;;;;;;;0.52;0.50;;;;;;;25.11;34.30;98887.97;4989404;28;20150;-91
2022/08/06 12:26:10;;;;;;;1.08;0.60;;;;;;;25.26;32.52;98890.59;5000091;28;20046;-89
2022/08/06 12:28:37;;;;;;;0.40;0.40;;;;;;;25.44;34.73;98891.06;4997684;28;20045;-93
2022/08/06 12:31:04;;;;;;;0.50;0.50;;;;;;;25.34;30.67;98886.53;4986742;28;20038;-91
2022/08/06 12:33:51;;;;;;;0.90;0.60;;;;;;;24.94;29.44;98882.09;4996200;28;20045;-88
2022/08/06 12:36:18;;;;;;;0.65;0.63;;;;;;;24.65;30.89;98880.06;5013266;28;20050;-89
2022/08/06 12:39:05;;;;;;;0.50;0.50;;;;;;;24.71;32.37;98878.97;4992994;28;20049;-89
2022/08/06 12:41:46;;;;;;;0.60;0.60;;;;;;;24.77;31.16;98880.56;4989752;28;20379;-86